Time;durP1;ratioP1;P1;durP2;ratioP2;P2;SDS_P1;SDS_P2;PMS_P1;PMS_P2;Temp;Humidity;BMP_temperature;BMP_pressure;BME280_temperature;BME280_humidity;BME280_pressure;Samples;Min_cycle;Max_cycle;Signal;HPM_P1;HPM_P2
2020/12/05 00:00:07;;;;;;;85.40;31.68;;;;;;;-0.35;87.23;100571.12;1701800;84;21173;-61
2020/12/05 00:02:36;;;;;;;86.85;33.63;;;;;;;-0.45;87.57;100562.02;1701675;84;21143;-61
2020/12/05 00:05:03;;;;;;;77.90;33.95;;;;;;;-0.38;87.50;100564.80;1695183;84;21315;-59
2020/12/05 00:07:30;;;;;;;81.80;34.15;;;;;;;-0.43;87.44;100566.70;1701688;84;21318;-62
2020/12/05 00:09:58;;;;;;;75.42;33.18;;;;;;;-0.50;87.76;100565.23;1695155;83;21192;-59
2020/12/05 00:12:25;;;;;;;72.30;30.60;;;;;;;-0.44;87.62;100570.38;1701666;84;21306;-60
2020/12/05 00:14:55;;;;;;;84.22;35.30;;;;;;;-0.36;87.31;100561.45;1705126;82;21125;-60
2020/12/05 00:17:22;;;;;;;76.05;31.37;;;;;;;-0.38;87.42;100570.15;1706669;82;21608;-60
2020/12/05 00:19:49;;;;;;;74.45;31.23;;;;;;;-0.44;87.58;100579.74;1735664;82;21215;-60
2020/12/05 00:22:18;;;;;;;79.67;33.25;;;;;;;-0.34;87.30;100583.50;1699495;83;21170;-60
2020/12/05 00:24:45;;;;;;;78.22;31.07;;;;;;;-0.34;87.21;100594.20;1735229;82;21173;-60
2020/12/05 00:27:13;;;;;;;73.30;33.75;;;;;;;-0.44;87.43;100591.78;1728481;81;21319;-61
2020/12/05 00:29:40;;;;;;;76.15;30.82;;;;;;;-0.44;87.54;100594.95;1719490;82;21138;-60
2020/12/05 00:32:08;;;;;;;77.37;33.33;;;;;;;-0.31;87.16;100604.53;1692190;82;21149;-60
2020/12/05 00:34:35;;;;;;;68.80;30.37;;;;;;;-0.39;87.24;100596.06;1685182;85;21214;-61
2020/12/05 00:37:03;;;;;;;69.92;31.55;;;;;;;-0.39;87.34;100605.97;1682812;85;21335;-62
2020/12/05 00:39:30;;;;;;;68.67;29.82;;;;;;;-0.30;86.99;100603.03;1673224;85;21599;-61
2020/12/05 00:41:58;;;;;;;72.72;28.00;;;;;;;-0.30;86.87;100606.20;1695571;82;21130;-61
2020/12/05 00:44:25;;;;;;;76.10;31.33;;;;;;;-0.43;87.22;100607.33;1716692;82;21177;-61
2020/12/05 00:46:53;;;;;;;60.60;27.17;;;;;;;-0.44;87.36;100603.81;1735391;82;21173;-62
2020/12/05 00:49:21;;;;;;;66.05;28.67;;;;;;;-0.35;86.94;100605.90;1735082;82;21169;-61
2020/12/05 00:51:49;;;;;;;62.70;28.75;;;;;;;-0.41;87.12;100594.59;1720783;82;21153;-61
2020/12/05 00:54:17;;;;;;;61.45;27.58;;;;;;;-0.38;87.13;100592.89;1717537;82;21207;-61
2020/12/05 00:56:45;;;;;;;59.20;25.68;;;;;;;-0.39;86.86;100589.37;1696255;83;21164;-61
2020/12/05 00:59:12;;;;;;;58.00;27.10;;;;;;;-0.48;87.19;100594.98;1707011;84;21191;-61
2020/12/05 01:01:40;;;;;;;50.25;24.63;;;;;;;-0.48;87.21;100588.30;1719051;82;21138;-62
2020/12/05 01:04:07;;;;;;;54.93;24.20;;;;;;;-0.48;87.01;100589.13;1730708;81;21316;-61
2020/12/05 01:06:35;;;;;;;63.13;28.70;;;;;;;-0.56;87.22;100586.52;1672712;82;21150;-62
2020/12/05 01:09:02;;;;;;;51.68;23.02;;;;;;;-0.48;87.22;100592.31;1692401;82;21156;-61
2020/12/05 01:11:30;;;;;;;59.23;26.52;;;;;;;-0.47;86.98;100599.33;1699559;82;21171;-62
2020/12/05 01:13:58;;;;;;;53.52;24.90;;;;;;;-0.59;87.27;100596.23;1714366;82;21189;-61
2020/12/05 01:16:27;;;;;;;49.83;23.40;;;;;;;-0.53;87.22;100603.04;1692143;82;21156;-61
2020/12/05 01:18:54;;;;;;;59.27;28.57;;;;;;;-0.52;87.13;100602.54;1695677;82;21318;-61
2020/12/05 01:21:21;;;;;;;56.35;26.93;;;;;;;-0.54;87.28;100603.23;1684634;84;21169;-61
2020/12/05 01:23:49;;;;;;;52.43;24.72;;;;;;;-0.57;87.38;100603.59;1679519;85;21195;-61
2020/12/05 01:26:21;;;;;;;49.03;23.32;;;;;;;-0.43;86.99;100599.30;1660129;86;21186;-61
2020/12/05 01:28:49;;;;;;;50.05;23.45;;;;;;;-0.57;87.15;100597.72;1649168;86;21318;-61
2020/12/05 01:31:16;;;;;;;48.20;23.80;;;;;;;-0.53;87.08;100597.69;1663432;86;21187;-61
2020/12/05 01:33:43;;;;;;;46.53;23.67;;;;;;;-0.53;86.85;100600.36;1734624;82;21343;-61
2020/12/05 01:36:11;;;;;;;42.98;20.72;;;;;;;-0.59;87.13;100601.09;1738494;82;21133;-60
2020/12/05 01:38:38;;;;;;;49.85;22.85;;;;;;;-0.57;87.11;100605.73;1723069;82;21161;-61
2020/12/05 01:41:06;;;;;;;45.65;23.18;;;;;;;-0.52;86.78;100603.88;1705769;82;21161;-61
2020/12/05 01:43:34;;;;;;;47.83;22.67;;;;;;;-0.57;86.95;100608.95;1686229;82;21149;-60
2020/12/05 01:46:04;;;;;;;46.18;20.88;;;;;;;-0.67;87.28;100609.66;1735795;82;21170;-60
2020/12/05 01:48:32;;;;;;;40.98;20.77;;;;;;;-0.62;87.02;100604.13;1730168;82;21876;-61
2020/12/05 01:50:59;;;;;;;52.43;24.75;;;;;;;-0.60;86.82;100610.11;1685469;82;21185;-60
2020/12/05 01:53:27;;;;;;;52.43;23.87;;;;;;;-0.68;87.08;100608.86;1708393;82;23219;-61
2020/12/05 01:55:55;;;;;;;38.23;18.62;;;;;;;-0.68;87.15;100595.98;1731669;82;21140;-60
2020/12/05 01:58:22;;;;;;;44.85;21.93;;;;;;;-0.63;86.87;100597.60;1723445;82;21142;-60
2020/12/05 02:00:50;;;;;;;46.33;20.70;;;;;;;-0.70;87.09;100593.48;1721645;82;21160;-61
2020/12/05 02:03:17;;;;;;;44.63;21.00;;;;;;;-0.79;87.44;100587.88;1728769;83;21158;-60
2020/12/05 02:06:14;;;;;;;42.30;22.22;;;;;;;-0.69;87.17;100583.12;1721147;82;21153;-61
2020/12/05 02:08:53;;;;;;;45.80;21.40;;;;;;;-0.70;87.21;100591.30;1711158;82;21182;-60
2020/12/05 02:11:23;;;;;;;46.18;22.37;;;;;;;-0.80;87.61;100594.22;1705715;82;21341;-60
2020/12/05 02:13:51;;;;;;;44.27;21.52;;;;;;;-0.71;87.37;100600.36;1728131;82;21744;-61
2020/12/05 02:16:18;;;;;;;47.58;21.42;;;;;;;-0.70;87.31;100591.30;1735767;82;21153;-61
2020/12/05 02:18:45;;;;;;;50.92;22.87;;;;;;;-0.81;87.63;100594.39;1734268;82;21752;-60
2020/12/05 02:21:13;;;;;;;40.08;19.27;;;;;;;-0.74;87.55;100596.17;1725437;82;21145;-60
2020/12/05 02:23:46;;;;;;;46.30;21.05;;;;;;;-0.66;87.33;100595.29;1659442;85;21177;-60
2020/12/05 02:26:14;;;;;;;46.40;23.62;;;;;;;-0.76;87.56;100599.55;1703284;82;21277;-61
2020/12/05 02:28:41;;;;;;;47.58;22.65;;;;;;;-0.70;87.50;100609.52;1696047;82;21226;-60
2020/12/05 02:31:08;;;;;;;44.27;21.15;;;;;;;-0.65;87.32;100600.97;1708659;82;21158;-61
2020/12/05 02:33:36;;;;;;;48.78;22.52;;;;;;;-0.72;87.46;100606.20;1725848;82;21164;-60
2020/12/05 02:36:06;;;;;;;41.45;20.95;;;;;;;-0.70;87.56;100608.69;1732218;82;21138;-61
2020/12/05 02:38:55;;;;;;;40.70;19.62;;;;;;;-0.65;87.33;100604.98;1712852;83;21145;-61
2020/12/05 02:41:23;;;;;;;37.63;18.67;;;;;;;-0.78;87.50;100606.09;1733293;82;21194;-61
2020/12/05 02:43:51;;;;;;;37.28;18.17;;;;;;;-0.75;87.55;100603.89;1689727;85;21246;-61
2020/12/05 02:46:20;;;;;;;37.85;18.77;;;;;;;-0.75;87.47;100613.25;1702851;82;21468;-61
2020/12/05 02:48:48;;;;;;;38.98;19.48;;;;;;;-0.78;87.72;100611.44;1726282;82;21191;-61
2020/12/05 02:51:15;;;;;;;42.10;22.30;;;;;;;-0.70;87.58;100618.88;1722158;82;21185;-61
2020/12/05 02:53:43;;;;;;;40.58;19.57;;;;;;;-0.62;87.31;100624.68;1715775;82;21506;-61
2020/12/05 02:56:18;;;;;;;43.33;20.12;;;;;;;-0.71;87.46;100619.88;1698657;82;21141;-60
2020/12/05 02:58:46;;;;;;;43.48;20.57;;;;;;;-0.68;87.44;100614.20;1719534;82;21195;-60
2020/12/05 03:01:13;;;;;;;44.05;22.15;;;;;;;-0.61;87.12;100596.44;1708801;82;21153;-60
2020/12/05 03:03:41;;;;;;;43.30;21.77;;;;;;;-0.71;87.39;100609.19;1713562;82;21264;-60
2020/12/05 03:06:08;;;;;;;46.92;22.58;;;;;;;-0.74;87.61;100608.71;1722747;82;21170;-61
2020/12/05 03:08:36;;;;;;;43.35;20.48;;;;;;;-0.60;87.21;100616.80;1734244;82;21164;-61
2020/12/05 03:11:06;;;;;;;46.02;21.40;;;;;;;-0.69;87.37;100612.53;1671463;84;21205;-61
2020/12/05 03:13:33;;;;;;;46.23;23.15;;;;;;;-0.66;87.44;100618.02;1691530;82;21199;-60
2020/12/05 03:16:01;;;;;;;44.93;23.12;;;;;;;-0.55;87.11;100618.45;1733311;82;21154;-61
2020/12/05 03:18:29;;;;;;;55.73;23.47;;;;;;;-0.61;87.28;100615.66;1687374;85;21327;-61
2020/12/05 03:20:56;;;;;;;47.78;21.87;;;;;;;-0.71;87.57;100601.16;1719399;82;21315;-61
2020/12/05 03:23:24;;;;;;;36.70;18.42;;;;;;;-0.62;87.35;100599.28;1687004;84;21193;-61
2020/12/05 03:25:56;;;;;;;45.85;22.75;;;;;;;-0.64;87.28;100602.64;1704160;82;21170;-61
2020/12/05 03:28:20;;;;;;;45.50;22.02;;;;;;;-0.74;87.63;100610.88;1726791;82;21181;-61
2020/12/05 03:30:48;;;;;;;44.23;22.17;;;;;;;-0.66;87.48;100606.83;1723964;82;21152;-61
2020/12/05 03:33:15;;;;;;;49.25;22.73;;;;;;;-0.63;87.38;100602.95;1707028;82;21360;-61
2020/12/05 03:35:43;;;;;;;42.45;20.92;;;;;;;-0.71;87.59;100599.83;1697220;84;21142;-60
2020/12/05 03:38:10;;;;;;;41.13;20.40;;;;;;;-0.69;87.61;100596.48;1669465;85;21276;-61
2020/12/05 03:40:37;;;;;;;41.75;19.87;;;;;;;-0.61;87.30;100602.28;1691254;85;21185;-61
2020/12/05 03:43:05;;;;;;;48.08;22.27;;;;;;;-0.69;87.46;100599.66;1690039;82;21165;-60
2020/12/05 03:45:32;;;;;;;44.13;22.40;;;;;;;-0.81;87.69;100583.70;1702072;81;21176;-61
2020/12/05 03:48:00;;;;;;;44.42;24.02;;;;;;;-0.58;87.32;100595.23;1733447;81;21153;-60
2020/12/05 03:50:27;;;;;;;46.30;23.75;;;;;;;-0.64;87.35;100594.09;1733528;82;21182;-61
2020/12/05 03:52:55;;;;;;;47.03;22.93;;;;;;;-0.75;87.58;100587.85;1701342;82;21142;-61
2020/12/05 03:55:22;;;;;;;44.77;21.82;;;;;;;-0.71;87.44;100575.77;1715611;82;21162;-61
2020/12/05 03:57:50;;;;;;;48.83;24.40;;;;;;;-0.72;87.37;100595.52;1688427;83;21612;-61
2020/12/05 04:00:18;;;;;;;44.50;22.48;;;;;;;-0.84;87.74;100581.38;1694795;82;21189;-59
2020/12/05 04:02:45;;;;;;;36.77;20.05;;;;;;;-0.85;87.81;100581.08;1712871;82;21154;-59
2020/12/05 04:05:14;;;;;;;49.00;24.10;;;;;;;-0.74;87.53;100598.84;1715226;82;21164;-59
2020/12/05 04:07:41;;;;;;;42.10;20.48;;;;;;;-0.81;87.72;100601.91;1720590;81;21177;-59
2020/12/05 04:10:09;;;;;;;42.93;21.90;;;;;;;-0.81;87.83;100597.90;1708994;82;21171;-60
2020/12/05 04:12:37;;;;;;;40.73;20.23;;;;;;;-0.73;87.46;100595.17;1692792;82;21182;-59
2020/12/05 04:15:05;;;;;;;46.35;23.02;;;;;;;-0.81;87.65;100599.23;1731137;82;21330;-60
2020/12/05 04:17:32;;;;;;;43.92;22.42;;;;;;;-0.84;87.83;100598.76;1713972;82;21290;-59
2020/12/05 04:20:00;;;;;;;48.02;24.00;;;;;;;-0.76;87.49;100586.17;1700166;82;21345;-59
2020/12/05 04:22:27;;;;;;;52.55;24.55;;;;;;;-0.80;87.69;100590.72;1695848;82;21298;-59
2020/12/05 04:24:55;;;;;;;49.33;24.77;;;;;;;-0.85;88.04;100596.58;1712273;82;21709;-59
2020/12/05 04:27:23;;;;;;;47.38;23.83;;;;;;;-0.69;87.60;100599.16;1727154;82;21189;-59
2020/12/05 04:29:51;;;;;;;54.38;24.55;;;;;;;-0.75;87.64;100598.55;1698623;82;21321;-59
2020/12/05 04:32:18;;;;;;;43.92;21.45;;;;;;;-0.82;87.97;100604.27;1713528;82;21124;-59
2020/12/05 04:34:47;;;;;;;49.50;23.95;;;;;;;-0.79;87.72;100603.08;1724836;82;21360;-59
2020/12/05 04:37:14;;;;;;;46.73;21.52;;;;;;;-0.73;87.51;100617.06;1697573;82;21522;-59
2020/12/05 04:39:42;;;;;;;50.08;23.12;;;;;;;-0.87;87.83;100601.79;1715213;81;21153;-59
2020/12/05 04:42:10;;;;;;;50.25;24.75;;;;;;;-0.80;87.80;100615.61;1738143;81;21701;-59
2020/12/05 04:44:37;;;;;;;54.42;25.97;;;;;;;-0.75;87.60;100609.24;1737448;82;21141;-59
2020/12/05 04:47:05;;;;;;;56.45;26.50;;;;;;;-0.82;87.86;100604.27;1722796;82;21157;-59
2020/12/05 04:49:32;;;;;;;56.90;28.32;;;;;;;-0.83;87.99;100604.44;1715610;82;21150;-59
2020/12/05 04:52:23;;;;;;;56.70;28.15;;;;;;;-0.72;87.70;100604.88;1731708;82;21154;-59
2020/12/05 04:54:55;;;;;;;64.37;32.03;;;;;;;-0.78;87.88;100604.75;1702923;81;21168;-59
2020/12/05 04:57:26;;;;;;;69.65;33.95;;;;;;;-0.86;88.31;100599.45;1694822;82;21193;-59
2020/12/05 04:59:54;;;;;;;58.60;30.12;;;;;;;-0.76;88.06;100612.91;1693341;82;21271;-59
2020/12/05 05:02:27;;;;;;;66.05;31.95;;;;;;;-0.77;88.05;100615.25;1727098;80;21105;-59
2020/12/05 05:04:55;;;;;;;63.68;30.90;;;;;;;-0.82;88.33;100609.63;1747633;80;21201;-59
2020/12/05 05:07:23;;;;;;;68.42;34.90;;;;;;;-0.77;88.34;100606.39;1731300;82;21157;-59
2020/12/05 05:09:56;;;;;;;67.08;31.73;;;;;;;-0.72;88.07;100614.23;1689936;85;21191;-59
2020/12/05 05:12:31;;;;;;;72.17;34.30;;;;;;;-0.83;88.38;100611.96;1685031;85;21361;-60
2020/12/05 05:14:58;;;;;;;72.10;34.53;;;;;;;-0.79;88.45;100611.10;1690421;85;21197;-60
2020/12/05 05:17:26;;;;;;;77.53;34.33;;;;;;;-0.72;88.15;100618.24;1733373;82;21142;-59
2020/12/05 05:19:54;;;;;;;72.58;32.67;;;;;;;-0.83;88.45;100622.66;1712471;82;21203;-59
2020/12/05 05:22:22;;;;;;;78.15;33.98;;;;;;;-0.79;88.40;100631.15;1662276;86;21190;-59
2020/12/05 05:25:03;;;;;;;72.10;34.18;;;;;;;-0.76;88.19;100632.97;1706749;82;21307;-59
2020/12/05 05:27:31;;;;;;;68.92;31.60;;;;;;;-0.79;88.30;100636.00;1730123;82;21299;-60
2020/12/05 05:30:13;;;;;;;76.95;36.35;;;;;;;-0.80;88.30;100644.19;1717057;82;21672;-59
2020/12/05 05:32:45;;;;;;;84.45;36.90;;;;;;;-0.71;87.93;100644.48;1726793;82;21608;-59
2020/12/05 05:35:13;;;;;;;72.42;33.25;;;;;;;-0.79;88.05;100644.02;1696916;82;21408;-60
2020/12/05 05:37:42;;;;;;;80.00;36.33;;;;;;;-0.79;88.05;100646.69;1697296;82;21323;-59
2020/12/05 05:40:12;;;;;;;83.55;38.60;;;;;;;-0.73;87.83;100646.48;1717266;81;21126;-59
2020/12/05 05:42:41;;;;;;;89.52;37.35;;;;;;;-0.75;87.92;100652.02;1712307;82;21276;-59
2020/12/05 05:45:24;;;;;;;82.02;37.05;;;;;;;-0.85;88.26;100654.59;1739542;82;21316;-60
2020/12/05 05:47:55;;;;;;;75.50;33.13;;;;;;;-0.74;87.91;100648.81;1738290;82;21200;-59
2020/12/05 05:50:29;;;;;;;86.53;38.02;;;;;;;-0.76;87.82;100650.34;1739179;82;21308;-59
2020/12/05 05:53:00;;;;;;;74.10;32.67;;;;;;;-0.85;88.20;100644.70;1703509;81;21176;-60
2020/12/05 05:55:48;;;;;;;98.35;40.75;;;;;;;-0.73;87.79;100632.61;1695371;82;21307;-59
2020/12/05 05:58:18;;;;;;;93.92;38.33;;;;;;;-0.75;87.84;100640.48;1720038;82;21291;-59
2020/12/05 06:00:50;;;;;;;85.42;38.83;;;;;;;-0.81;88.13;100642.01;1690123;85;21134;-60
2020/12/05 06:03:30;;;;;;;76.95;33.92;;;;;;;-0.77;88.00;100640.66;1711725;82;21161;-60
2020/12/05 06:05:58;;;;;;;92.57;37.88;;;;;;;-0.80;88.03;100638.83;1724020;82;21177;-61
2020/12/05 06:08:28;;;;;;;82.47;37.33;;;;;;;-0.82;88.26;100644.37;1723759;81;21287;-60
2020/12/05 06:10:59;;;;;;;87.15;40.23;;;;;;;-0.71;87.95;100642.61;1711899;82;21195;-60
2020/12/05 06:13:31;;;;;;;90.25;37.98;;;;;;;-0.69;87.86;100649.12;1686096;82;21182;-60
2020/12/05 06:16:00;;;;;;;81.05;35.68;;;;;;;-0.79;88.20;100648.53;1710717;82;21335;-60
2020/12/05 06:18:28;;;;;;;69.60;31.55;;;;;;;-0.78;88.15;100652.88;1710646;82;21177;-59
2020/12/05 06:20:56;;;;;;;85.40;35.35;;;;;;;-0.74;87.96;100652.83;1730035;82;21146;-58
2020/12/05 06:23:51;;;;;;;80.72;37.20;;;;;;;-0.86;88.42;100649.74;1736372;82;21186;-60
2020/12/05 06:26:31;;;;;;;73.67;32.53;;;;;;;-0.79;88.30;100648.53;1732268;82;21171;-59
2020/12/05 06:29:01;;;;;;;78.45;33.85;;;;;;;-0.78;88.26;100651.01;1714495;82;21187;-60
2020/12/05 06:31:41;;;;;;;67.78;30.05;;;;;;;-0.80;88.45;100654.37;1739240;81;21291;-60
2020/12/05 06:34:13;;;;;;;63.55;30.70;;;;;;;-0.73;88.14;100650.48;1730668;82;21202;-59
2020/12/05 06:36:42;;;;;;;78.07;32.60;;;;;;;-0.84;88.15;100633.01;1700992;82;21149;-59
2020/12/05 06:39:18;;;;;;;71.25;32.73;;;;;;;-0.72;88.26;100663.69;1694573;85;21222;-59
2020/12/05 06:41:49;;;;;;;67.67;30.80;;;;;;;-0.63;87.96;100669.30;1727904;82;21530;-59
2020/12/05 06:44:20;;;;;;;74.53;31.48;;;;;;;-0.64;87.93;100674.84;1735954;81;21308;-60
2020/12/05 06:46:59;;;;;;;80.60;36.00;;;;;;;-0.72;88.23;100679.73;1732912;81;21176;-59
2020/12/05 06:49:41;;;;;;;82.72;35.10;;;;;;;-0.57;87.84;100688.65;1710399;82;21149;-60
2020/12/05 06:52:30;;;;;;;73.67;28.75;;;;;;;-0.60;87.91;100685.50;1728210;82;21173;-59
2020/12/05 06:55:10;;;;;;;69.35;31.62;;;;;;;-0.72;88.21;100690.44;1721821;82;21169;-59
2020/12/05 06:57:38;;;;;;;76.05;33.60;;;;;;;-0.67;88.00;100691.22;1713510;82;21209;-60
2020/12/05 07:00:24;;;;;;;74.27;32.67;;;;;;;-0.65;87.96;100689.22;1730340;82;21185;-60
2020/12/05 07:02:55;;;;;;;79.05;37.05;;;;;;;-0.74;88.25;100689.75;1718029;82;21591;-59
2020/12/05 07:05:24;;;;;;;85.97;37.48;;;;;;;-0.62;88.03;100701.73;1710900;82;21166;-60
2020/12/05 07:07:55;;;;;;;83.10;37.20;;;;;;;-0.60;87.95;100697.53;1722654;82;21321;-59
2020/12/05 07:10:46;;;;;;;62.50;28.10;;;;;;;-0.67;88.22;100705.42;1707574;82;21148;-59
2020/12/05 07:13:20;;;;;;;74.77;33.50;;;;;;;-0.57;87.91;100706.56;1730816;82;21135;-60
2020/12/05 07:15:48;;;;;;;82.08;34.30;;;;;;;-0.61;87.90;100702.57;1731532;82;21312;-60
2020/12/05 07:18:26;;;;;;;77.58;34.33;;;;;;;-0.69;88.16;100714.14;1747164;81;21164;-59
2020/12/05 07:20:55;;;;;;;65.03;29.82;;;;;;;-0.57;87.93;100724.75;1759883;81;21137;-60
2020/12/05 07:23:23;;;;;;;80.70;32.83;;;;;;;-0.51;87.74;100724.57;1760191;81;21177;-59
2020/12/05 07:25:50;;;;;;;67.92;30.97;;;;;;;-0.63;88.07;100729.47;1758393;81;21169;-59
2020/12/05 07:28:18;;;;;;;60.58;28.77;;;;;;;-0.53;87.99;100733.26;1733824;81;21184;-60
2020/12/05 07:30:45;;;;;;;80.85;35.50;;;;;;;-0.52;87.82;100737.61;1752185;81;21177;-60
2020/12/05 07:33:12;;;;;;;75.70;35.05;;;;;;;-0.56;88.01;100739.80;1750601;82;21299;-60
2020/12/05 07:35:40;;;;;;;72.17;34.85;;;;;;;-0.47;87.86;100735.75;1741270;81;21597;-60
2020/12/05 07:38:13;;;;;;;60.00;28.90;;;;;;;-0.40;87.62;100734.88;1754332;81;21193;-59
2020/12/05 07:40:42;;;;;;;60.30;27.60;;;;;;;-0.53;87.76;100736.77;1752024;81;21118;-60
2020/12/05 07:43:18;;;;;;;55.90;26.12;;;;;;;-0.48;87.74;100740.77;1724205;83;21205;-60
2020/12/05 07:45:49;;;;;;;63.33;29.42;;;;;;;-0.44;87.54;100736.73;1688838;83;21175;-59
2020/12/05 07:48:20;;;;;;;58.28;25.88;;;;;;;-0.53;87.84;100748.80;1721713;83;21303;-59
2020/12/05 07:50:48;;;;;;;59.75;28.23;;;;;;;-0.47;87.72;100753.14;1710154;83;21315;-59
2020/12/05 07:53:25;;;;;;;57.65;26.50;;;;;;;-0.43;87.57;100748.61;1695518;84;21222;-61
2020/12/05 07:55:54;;;;;;;50.67;25.97;;;;;;;-0.51;87.79;100749.48;1690735;83;21163;-60
2020/12/05 07:58:22;;;;;;;55.10;26.65;;;;;;;-0.51;87.88;100752.16;1683803;84;21609;-64
2020/12/05 08:00:54;;;;;;;52.50;25.02;;;;;;;-0.39;87.57;100758.45;1688157;84;21156;-59
2020/12/05 08:03:49;;;;;;;52.40;25.70;;;;;;;-0.46;87.77;100756.95;1690547;84;21759;-58
2020/12/05 08:06:51;;;;;;;51.65;26.70;;;;;;;-0.51;87.85;100758.84;1690581;84;21295;-61
2020/12/05 08:09:24;;;;;;;52.98;24.47;;;;;;;-0.40;87.58;100766.14;1695348;84;21339;-61
2020/12/05 08:11:52;;;;;;;53.38;25.55;;;;;;;-0.54;88.03;100772.57;1694222;83;21207;-61
2020/12/05 08:14:20;;;;;;;46.18;21.45;;;;;;;-0.47;87.84;100774.53;1705193;83;21212;-60
2020/12/05 08:16:48;;;;;;;51.85;24.82;;;;;;;-0.43;87.67;100775.86;1681814;84;21641;-62
2020/12/05 08:19:15;;;;;;;52.25;26.65;;;;;;;-0.48;87.88;100784.40;1715345;82;21306;-60
2020/12/05 08:21:43;;;;;;;58.05;28.52;;;;;;;-0.43;87.65;100786.06;1694344;85;21551;-60
2020/12/05 08:24:12;;;;;;;73.07;33.98;;;;;;;-0.44;87.76;100787.05;1701060;82;21200;-62
2020/12/05 08:26:40;;;;;;;63.38;31.33;;;;;;;-0.43;87.84;100790.57;1711788;82;21371;-63
2020/12/05 08:29:08;;;;;;;72.27;33.60;;;;;;;-0.33;87.51;100795.19;1704328;82;21353;-60
2020/12/05 08:32:28;;;;;;;67.72;30.27;;;;;;;-0.40;87.64;100791.55;1818606;78;22845;-59
2020/12/05 08:35:07;;;;;;;61.77;29.67;;;;;;;-0.40;87.63;100790.22;1759305;80;21173;-61
2020/12/05 08:37:34;;;;;;;65.17;30.30;;;;;;;-0.38;87.49;100785.01;1733673;80;21700;-60
2020/12/05 08:40:03;;;;;;;71.90;32.58;;;;;;;-0.43;87.66;100788.73;1719483;81;21279;-61
2020/12/05 08:42:30;;;;;;;58.98;27.70;;;;;;;-0.47;87.63;100782.56;1731404;80;21310;-61
2020/12/05 08:44:58;;;;;;;50.70;24.10;;;;;;;-0.38;87.32;100784.17;1753252;80;21299;-61
2020/12/05 08:47:25;;;;;;;63.45;28.98;;;;;;;-0.48;87.39;100779.55;1749064;80;21180;-61
2020/12/05 08:49:53;;;;;;;61.65;28.65;;;;;;;-0.57;87.68;100780.92;1751324;80;21160;-59
2020/12/05 08:52:24;;;;;;;71.20;31.97;;;;;;;-0.54;87.54;100779.26;1751753;81;21173;-60
2020/12/05 08:54:53;;;;;;;58.42;27.02;;;;;;;-0.57;87.72;100780.92;1748864;80;21221;-61
2020/12/05 08:57:21;;;;;;;60.43;27.67;;;;;;;-0.58;87.86;100769.08;1754242;80;21303;-60
2020/12/05 09:00:00;;;;;;;53.55;26.75;;;;;;;-0.52;87.62;100777.23;1754373;81;21181;-60
2020/12/05 09:02:35;;;;;;;56.85;27.73;;;;;;;-0.57;87.78;100763.53;1752106;81;21185;-61
2020/12/05 09:05:03;;;;;;;50.60;24.45;;;;;;;-0.52;87.61;100773.22;1760505;81;21294;-61
2020/12/05 09:07:30;;;;;;;59.58;27.93;;;;;;;-0.53;87.42;100772.87;1760062;81;21745;-62
2020/12/05 09:09:58;;;;;;;61.63;27.95;;;;;;;-0.62;87.71;100758.39;1758953;81;21125;-60
2020/12/05 09:12:31;;;;;;;53.83;25.77;;;;;;;-0.68;87.87;100762.61;1760600;80;21519;-61
2020/12/05 09:15:05;;;;;;;61.85;28.12;;;;;;;-0.58;87.63;100763.73;1760755;80;21348;-61
2020/12/05 09:17:34;;;;;;;62.30;28.10;;;;;;;-0.70;87.95;100757.92;1757993;81;21140;-61
2020/12/05 09:20:19;;;;;;;56.90;26.27;;;;;;;-0.61;87.93;100766.75;1720201;83;21352;-61
2020/12/05 09:22:53;;;;;;;66.72;28.12;;;;;;;-0.60;87.78;100764.39;1720374;82;21154;-61
2020/12/05 09:25:36;;;;;;;57.67;25.02;;;;;;;-0.66;88.08;100759.25;1756509;81;21283;-61
2020/12/05 09:28:11;;;;;;;65.97;30.90;;;;;;;-0.59;87.99;100760.72;1753847;82;21266;-61
2020/12/05 09:30:39;;;;;;;63.02;28.12;;;;;;;-0.57;87.80;100759.52;1753452;81;21542;-61
2020/12/05 09:33:15;;;;;;;63.48;26.00;;;;;;;-0.65;88.00;100756.91;1741807;82;21157;-61
2020/12/05 09:35:43;;;;;;;71.72;31.50;;;;;;;-0.56;87.69;100761.70;1737666;80;21305;-61
2020/12/05 09:38:11;;;;;;;58.58;25.40;;;;;;;-0.65;87.76;100764.93;1732693;82;21274;-61
2020/12/05 09:40:38;;;;;;;68.60;29.10;;;;;;;-0.57;87.70;100765.41;1718244;83;21604;-61
2020/12/05 09:43:06;;;;;;;66.70;29.92;;;;;;;-0.50;87.45;100764.50;1728333;80;21287;-61
2020/12/05 09:45:33;;;;;;;79.90;34.20;;;;;;;-0.54;87.60;100767.22;1717473;82;21271;-61
2020/12/05 09:48:01;;;;;;;78.60;35.48;;;;;;;-0.60;87.90;100771.91;1719246;82;21133;-61
2020/12/05 09:50:28;;;;;;;73.33;34.00;;;;;;;-0.51;87.62;100774.05;1730176;80;21357;-61
2020/12/05 09:52:57;;;;;;;78.85;33.90;;;;;;;-0.51;87.55;100772.72;1749351;82;21295;-61
2020/12/05 09:55:25;;;;;;;82.53;36.75;;;;;;;-0.56;87.73;100776.41;1743674;82;21177;-66
2020/12/05 09:57:53;;;;;;;73.97;33.30;;;;;;;-0.46;87.51;100773.01;1737181;82;21752;-65
2020/12/05 10:00:22;;;;;;;70.90;31.42;;;;;;;-0.45;87.47;100781.37;1735655;82;21356;-65
2020/12/05 10:02:50;;;;;;;67.70;31.40;;;;;;;-0.58;87.67;100781.95;1741774;80;21159;-64
2020/12/05 10:05:18;;;;;;;62.43;28.42;;;;;;;-0.51;87.53;100778.91;1742278;81;21157;-64
2020/12/05 10:07:45;;;;;;;70.05;32.17;;;;;;;-0.51;87.39;100786.09;1741382;82;21599;-63
2020/12/05 10:10:14;;;;;;;61.92;26.57;;;;;;;-0.58;87.73;100778.44;1744257;82;21160;-60
2020/12/05 10:15:18;;;;;;;55.58;24.75;;;;;;;-0.47;87.47;100783.40;1847438;76;23332;-58
2020/12/05 10:17:46;;;;;;;57.08;25.52;;;;;;;-0.59;87.71;100776.77;1815982;79;21136;-60
2020/12/05 10:20:13;;;;;;;53.15;25.43;;;;;;;-0.60;87.81;100783.11;1817511;79;21135;-60
2020/12/05 10:22:40;;;;;;;53.25;26.27;;;;;;;-0.52;87.63;100781.73;1756734;80;21155;-60
2020/12/05 10:25:10;;;;;;;52.58;24.57;;;;;;;-0.59;87.78;100784.28;1786094;79;21181;-60
2020/12/05 10:27:38;;;;;;;47.60;23.90;;;;;;;-0.53;87.82;100774.72;1813000;79;21155;-60
2020/12/05 10:30:07;;;;;;;58.48;27.75;;;;;;;-0.41;87.54;100779.17;1787311;79;21155;-60
2020/12/05 10:32:34;;;;;;;61.00;28.70;;;;;;;-0.51;87.81;100780.73;1793714;79;21143;-60
2020/12/05 10:35:02;;;;;;;51.90;24.15;;;;;;;-0.43;87.73;100780.70;1786294;80;21306;-60
2020/12/05 10:37:29;;;;;;;63.50;29.80;;;;;;;-0.34;87.42;100778.80;1786454;79;21156;-60
2020/12/05 10:39:56;;;;;;;57.43;27.70;;;;;;;-0.39;87.70;100779.85;1787038;79;21103;-60
2020/12/05 10:42:24;;;;;;;55.08;27.65;;;;;;;-0.42;87.86;100783.69;1786234;80;21721;-60
2020/12/05 10:44:53;;;;;;;51.25;27.17;;;;;;;-0.33;87.66;100792.52;1756462;80;21148;-60
2020/12/05 10:47:20;;;;;;;53.95;27.10;;;;;;;-0.40;87.86;100794.23;1754887;80;21677;-60
2020/12/05 10:49:48;;;;;;;52.40;27.93;;;;;;;-0.37;87.92;100788.52;1787162;79;21140;-60
2020/12/05 10:52:15;;;;;;;54.65;25.23;;;;;;;-0.34;87.78;100801.05;1794121;79;21148;-60
2020/12/05 10:54:43;;;;;;;47.45;24.12;;;;;;;-0.41;88.06;100797.91;1789254;79;21131;-60
2020/12/05 10:57:10;;;;;;;51.20;26.80;;;;;;;-0.37;88.03;100793.37;1786344;80;21155;-61
2020/12/05 10:59:37;;;;;;;50.85;25.02;;;;;;;-0.37;87.92;100796.05;1756368;79;21136;-61
2020/12/05 11:02:05;;;;;;;58.60;28.27;;;;;;;-0.41;88.14;100792.55;1800273;79;21815;-61
2020/12/05 11:04:33;;;;;;;46.42;25.65;;;;;;;-0.34;88.10;100801.05;1786761;79;21645;-60
2020/12/05 11:07:01;;;;;;;53.02;26.97;;;;;;;-0.35;88.02;100785.16;1786145;80;21184;-60
2020/12/05 11:09:30;;;;;;;53.92;28.67;;;;;;;-0.39;88.29;100801.25;1803318;79;21178;-61
2020/12/05 11:11:58;;;;;;;50.08;26.75;;;;;;;-0.33;88.14;100780.48;1816426;79;21144;-60
2020/12/05 11:14:26;;;;;;;49.53;27.90;;;;;;;-0.30;88.00;100801.53;1783428;78;21130;-60
2020/12/05 11:16:53;;;;;;;52.70;26.02;;;;;;;-0.34;88.27;100801.55;1835671;78;21135;-60
2020/12/05 11:19:20;;;;;;;45.52;24.35;;;;;;;-0.28;88.20;100801.67;1836207;78;21127;-60
2020/12/05 11:21:48;;;;;;;53.20;27.60;;;;;;;-0.24;87.82;100796.30;1836176;78;21147;-60
2020/12/05 11:24:16;;;;;;;49.25;26.07;;;;;;;-0.27;88.04;100797.16;1834013;78;21140;-60